sensor_id;sensor_type;location;lat;lon;timestamp;P1;durP1;ratioP1;P2;durP2;ratioP2
12114;SDS011;6121;49.810;6.418;2022-12-29T00:01:24;804.00;;;750.60;;
12114;SDS011;6121;49.810;6.418;2022-12-29T00:03:50;811.33;;;757.20;;
12114;SDS011;6121;49.810;6.418;2022-12-29T00:06:16;791.35;;;738.42;;
12114;SDS011;6121;49.810;6.418;2022-12-29T00:08:41;809.93;;;755.93;;
12114;SDS011;6121;49.810;6.418;2022-12-29T00:11:14;807.07;;;753.17;;
12114;SDS011;6121;49.810;6.418;2022-12-29T00:13:41;811.90;;;758.03;;
12114;SDS011;6121;49.810;6.418;2022-12-29T00:16:26;824.17;;;770.43;;
12114;SDS011;6121;49.810;6.418;2022-12-29T00:18:52;809.25;;;755.47;;
12114;SDS011;6121;49.810;6.418;2022-12-29T00:21:18;807.00;;;753.70;;
12114;SDS011;6121;49.810;6.418;2022-12-29T00:24:05;819.65;;;765.72;;
12114;SDS011;6121;49.810;6.418;2022-12-29T00:26:55;772.78;;;720.17;;
12114;SDS011;6121;49.810;6.418;2022-12-29T00:29:48;792.88;;;739.75;;
12114;SDS011;6121;49.810;6.418;2022-12-29T00:32:33;775.78;;;723.50;;
12114;SDS011;6121;49.810;6.418;2022-12-29T00:35:38;818.85;;;765.03;;
12114;SDS011;6121;49.810;6.418;2022-12-29T00:38:07;806.67;;;752.83;;
12114;SDS011;6121;49.810;6.418;2022-12-29T00:40:52;803.22;;;749.72;;
12114;SDS011;6121;49.810;6.418;2022-12-29T00:43:36;815.05;;;761.10;;
12114;SDS011;6121;49.810;6.418;2022-12-29T00:46:20;813.67;;;759.88;;
12114;SDS011;6121;49.810;6.418;2022-12-29T00:48:46;805.33;;;751.73;;
12114;SDS011;6121;49.810;6.418;2022-12-29T00:51:30;801.00;;;747.85;;
12114;SDS011;6121;49.810;6.418;2022-12-29T00:53:56;820.10;;;766.07;;
12114;SDS011;6121;49.810;6.418;2022-12-29T00:56:21;819.47;;;765.57;;
12114;SDS011;6121;49.810;6.418;2022-12-29T00:58:47;831.03;;;776.60;;
12114;SDS011;6121;49.810;6.418;2022-12-29T01:01:12;830.40;;;776.28;;
12114;SDS011;6121;49.810;6.418;2022-12-29T01:03:38;817.78;;;763.85;;
12114;SDS011;6121;49.810;6.418;2022-12-29T01:06:04;823.10;;;769.03;;
12114;SDS011;6121;49.810;6.418;2022-12-29T01:08:35;803.75;;;750.53;;
12114;SDS011;6121;49.810;6.418;2022-12-29T01:11:01;821.83;;;767.85;;
12114;SDS011;6121;49.810;6.418;2022-12-29T01:13:29;825.28;;;771.30;;
12114;SDS011;6121;49.810;6.418;2022-12-29T01:15:54;817.47;;;763.72;;
12114;SDS011;6121;49.810;6.418;2022-12-29T01:18:21;826.30;;;772.22;;
12114;SDS011;6121;49.810;6.418;2022-12-29T01:20:47;813.92;;;760.33;;
12114;SDS011;6121;49.810;6.418;2022-12-29T01:23:13;828.95;;;774.75;;
12114;SDS011;6121;49.810;6.418;2022-12-29T01:25:39;818.30;;;764.43;;
12114;SDS011;6121;49.810;6.418;2022-12-29T01:28:05;815.60;;;761.65;;
12114;SDS011;6121;49.810;6.418;2022-12-29T01:30:33;822.28;;;768.40;;
12114;SDS011;6121;49.810;6.418;2022-12-29T01:32:59;816.83;;;762.70;;
12114;SDS011;6121;49.810;6.418;2022-12-29T01:35:25;799.57;;;746.67;;
12114;SDS011;6121;49.810;6.418;2022-12-29T01:37:50;810.03;;;756.47;;
12114;SDS011;6121;49.810;6.418;2022-12-29T01:40:16;809.55;;;756.05;;
12114;SDS011;6121;49.810;6.418;2022-12-29T01:42:42;812.83;;;759.08;;
12114;SDS011;6121;49.810;6.418;2022-12-29T01:47:38;803.88;;;750.17;;
12114;SDS011;6121;49.810;6.418;2022-12-29T01:50:12;816.47;;;762.72;;
12114;SDS011;6121;49.810;6.418;2022-12-29T01:52:40;816.90;;;763.17;;
12114;SDS011;6121;49.810;6.418;2022-12-29T01:55:12;814.65;;;760.90;;
12114;SDS011;6121;49.810;6.418;2022-12-29T01:57:39;822.40;;;768.65;;
12114;SDS011;6121;49.810;6.418;2022-12-29T02:00:08;821.87;;;767.93;;
12114;SDS011;6121;49.810;6.418;2022-12-29T02:02:36;818.77;;;764.87;;
12114;SDS011;6121;49.810;6.418;2022-12-29T02:05:05;820.97;;;766.78;;
12114;SDS011;6121;49.810;6.418;2022-12-29T02:07:36;829.30;;;775.28;;
12114;SDS011;6121;49.810;6.418;2022-12-29T02:10:03;843.90;;;789.15;;
12114;SDS011;6121;49.810;6.418;2022-12-29T02:12:29;802.13;;;749.13;;
12114;SDS011;6121;49.810;6.418;2022-12-29T02:14:55;815.75;;;762.15;;
12114;SDS011;6121;49.810;6.418;2022-12-29T02:22:48;793.93;;;741.23;;
12114;SDS011;6121;49.810;6.418;2022-12-29T02:31:50;808.55;;;755.40;;
12114;SDS011;6121;49.810;6.418;2022-12-29T02:37:27;826.15;;;772.17;;
12114;SDS011;6121;49.810;6.418;2022-12-29T02:40:14;815.50;;;761.80;;
12114;SDS011;6121;49.810;6.418;2022-12-29T02:43:00;800.78;;;747.47;;
12114;SDS011;6121;49.810;6.418;2022-12-29T02:46:03;804.60;;;751.63;;
12114;SDS011;6121;49.810;6.418;2022-12-29T02:48:37;831.95;;;777.80;;
12114;SDS011;6121;49.810;6.418;2022-12-29T02:51:51;841.70;;;787.22;;
12114;SDS011;6121;49.810;6.418;2022-12-29T02:54:00;825.00;;;771.03;;
12114;SDS011;6121;49.810;6.418;2022-12-29T02:56:45;824.55;;;770.85;;
12114;SDS011;6121;49.810;6.418;2022-12-29T02:59:10;825.43;;;771.57;;
12114;SDS011;6121;49.810;6.418;2022-12-29T03:01:53;828.85;;;775.05;;
12114;SDS011;6121;49.810;6.418;2022-12-29T03:07:29;812.03;;;758.30;;
12114;SDS011;6121;49.810;6.418;2022-12-29T03:16:43;810.47;;;757.00;;
12114;SDS011;6121;49.810;6.418;2022-12-29T03:19:14;788.42;;;735.78;;
12114;SDS011;6121;49.810;6.418;2022-12-29T03:22:04;795.72;;;742.97;;
12114;SDS011;6121;49.810;6.418;2022-12-29T03:24:57;802.23;;;749.00;;
12114;SDS011;6121;49.810;6.418;2022-12-29T03:27:30;808.63;;;755.13;;
12114;SDS011;6121;49.810;6.418;2022-12-29T03:30:04;811.10;;;757.75;;
12114;SDS011;6121;49.810;6.418;2022-12-29T03:32:32;796.40;;;743.40;;
12114;SDS011;6121;49.810;6.418;2022-12-29T03:35:01;815.97;;;762.20;;
12114;SDS011;6121;49.810;6.418;2022-12-29T03:37:30;814.47;;;760.75;;
12114;SDS011;6121;49.810;6.418;2022-12-29T03:40:00;811.90;;;758.00;;
12114;SDS011;6121;49.810;6.418;2022-12-29T03:42:27;802.75;;;749.33;;
12114;SDS011;6121;49.810;6.418;2022-12-29T03:44:55;791.37;;;738.73;;
12114;SDS011;6121;49.810;6.418;2022-12-29T03:47:22;800.30;;;747.05;;
12114;SDS011;6121;49.810;6.418;2022-12-29T03:49:49;807.63;;;754.50;;
12114;SDS011;6121;49.810;6.418;2022-12-29T03:52:15;804.95;;;751.47;;
12114;SDS011;6121;49.810;6.418;2022-12-29T03:54:41;804.40;;;751.38;;
12114;SDS011;6121;49.810;6.418;2022-12-29T03:57:07;805.47;;;752.17;;
12114;SDS011;6121;49.810;6.418;2022-12-29T03:59:34;804.92;;;751.83;;
12114;SDS011;6121;49.810;6.418;2022-12-29T04:01:59;801.77;;;748.63;;
12114;SDS011;6121;49.810;6.418;2022-12-29T04:04:25;834.07;;;779.50;;
12114;SDS011;6121;49.810;6.418;2022-12-29T04:06:51;827.90;;;774.13;;
12114;SDS011;6121;49.810;6.418;2022-12-29T04:09:16;840.08;;;785.67;;
12114;SDS011;6121;49.810;6.418;2022-12-29T04:11:42;825.75;;;771.85;;
12114;SDS011;6121;49.810;6.418;2022-12-29T04:14:07;828.90;;;774.78;;
12114;SDS011;6121;49.810;6.418;2022-12-29T04:16:33;790.25;;;737.65;;
12114;SDS011;6121;49.810;6.418;2022-12-29T04:19:00;805.78;;;752.22;;
12114;SDS011;6121;49.810;6.418;2022-12-29T04:21:26;797.63;;;744.50;;
12114;SDS011;6121;49.810;6.418;2022-12-29T04:23:52;801.30;;;748.17;;
12114;SDS011;6121;49.810;6.418;2022-12-29T04:26:18;808.13;;;754.70;;
12114;SDS011;6121;49.810;6.418;2022-12-29T04:28:44;819.67;;;765.90;;
12114;SDS011;6121;49.810;6.418;2022-12-29T04:31:09;821.13;;;767.10;;
12114;SDS011;6121;49.810;6.418;2022-12-29T04:33:35;812.70;;;759.15;;
12114;SDS011;6121;49.810;6.418;2022-12-29T04:36:01;801.25;;;748.00;;
12114;SDS011;6121;49.810;6.418;2022-12-29T04:38:26;808.67;;;755.17;;
12114;SDS011;6121;49.810;6.418;2022-12-29T04:40:52;815.87;;;762.20;;
12114;SDS011;6121;49.810;6.418;2022-12-29T04:43:18;822.35;;;768.65;;
12114;SDS011;6121;49.810;6.418;2022-12-29T04:45:47;825.47;;;771.65;;
12114;SDS011;6121;49.810;6.418;2022-12-29T04:48:13;810.33;;;756.80;;
12114;SDS011;6121;49.810;6.418;2022-12-29T04:50:40;817.97;;;764.33;;
12114;SDS011;6121;49.810;6.418;2022-12-29T04:53:06;811.22;;;757.67;;
12114;SDS011;6121;49.810;6.418;2022-12-29T04:55:32;809.45;;;756.05;;
12114;SDS011;6121;49.810;6.418;2022-12-29T04:57:58;810.65;;;757.50;;
12114;SDS011;6121;49.810;6.418;2022-12-29T05:00:24;817.20;;;763.50;;
12114;SDS011;6121;49.810;6.418;2022-12-29T05:02:49;817.22;;;763.42;;
12114;SDS011;6121;49.810;6.418;2022-12-29T05:05:16;814.42;;;760.88;;
12114;SDS011;6121;49.810;6.418;2022-12-29T05:07:42;815.38;;;761.90;;
12114;SDS011;6121;49.810;6.418;2022-12-29T05:10:08;811.10;;;757.67;;
12114;SDS011;6121;49.810;6.418;2022-12-29T05:12:34;810.33;;;757.20;;
12114;SDS011;6121;49.810;6.418;2022-12-29T05:15:01;818.03;;;764.58;;
12114;SDS011;6121;49.810;6.418;2022-12-29T05:17:28;818.42;;;764.50;;
12114;SDS011;6121;49.810;6.418;2022-12-29T05:19:53;810.70;;;757.47;;
12114;SDS011;6121;49.810;6.418;2022-12-29T05:22:19;809.00;;;755.72;;
12114;SDS011;6121;49.810;6.418;2022-12-29T05:24:45;825.95;;;772.20;;
12114;SDS011;6121;49.810;6.418;2022-12-29T05:27:11;819.05;;;765.28;;
12114;SDS011;6121;49.810;6.418;2022-12-29T05:29:36;808.72;;;755.58;;
12114;SDS011;6121;49.810;6.418;2022-12-29T05:32:02;813.65;;;760.35;;
12114;SDS011;6121;49.810;6.418;2022-12-29T05:34:28;823.05;;;769.00;;
12114;SDS011;6121;49.810;6.418;2022-12-29T05:36:53;805.27;;;752.37;;
12114;SDS011;6121;49.810;6.418;2022-12-29T05:39:19;802.80;;;749.40;;
12114;SDS011;6121;49.810;6.418;2022-12-29T05:41:45;781.42;;;728.78;;
12114;SDS011;6121;49.810;6.418;2022-12-29T05:44:10;839.35;;;785.05;;
12114;SDS011;6121;49.810;6.418;2022-12-29T05:46:36;784.92;;;732.60;;
12114;SDS011;6121;49.810;6.418;2022-12-29T05:49:02;797.90;;;745.28;;
12114;SDS011;6121;49.810;6.418;2022-12-29T05:51:28;801.03;;;748.15;;
12114;SDS011;6121;49.810;6.418;2022-12-29T05:53:53;795.80;;;743.20;;
12114;SDS011;6121;49.810;6.418;2022-12-29T05:56:19;806.07;;;752.17;;
12114;SDS011;6121;49.810;6.418;2022-12-29T05:58:45;785.03;;;732.43;;
12114;SDS011;6121;49.810;6.418;2022-12-29T06:01:10;791.47;;;738.88;;
12114;SDS011;6121;49.810;6.418;2022-12-29T06:03:36;793.22;;;740.60;;
12114;SDS011;6121;49.810;6.418;2022-12-29T06:06:02;790.60;;;738.33;;
12114;SDS011;6121;49.810;6.418;2022-12-29T06:08:27;799.73;;;747.03;;
12114;SDS011;6121;49.810;6.418;2022-12-29T06:10:53;786.73;;;734.43;;
12114;SDS011;6121;49.810;6.418;2022-12-29T06:13:18;776.63;;;724.35;;
12114;SDS011;6121;49.810;6.418;2022-12-29T06:15:44;792.17;;;739.78;;
12114;SDS011;6121;49.810;6.418;2022-12-29T06:18:10;796.53;;;744.13;;
12114;SDS011;6121;49.810;6.418;2022-12-29T06:20:35;787.27;;;734.97;;
12114;SDS011;6121;49.810;6.418;2022-12-29T06:23:01;795.20;;;742.53;;
12114;SDS011;6121;49.810;6.418;2022-12-29T06:25:27;795.28;;;742.70;;
12114;SDS011;6121;49.810;6.418;2022-12-29T06:27:53;795.50;;;743.00;;
12114;SDS011;6121;49.810;6.418;2022-12-29T06:30:18;767.75;;;716.03;;
12114;SDS011;6121;49.810;6.418;2022-12-29T06:32:44;778.47;;;726.53;;
12114;SDS011;6121;49.810;6.418;2022-12-29T06:35:10;786.47;;;734.13;;
12114;SDS011;6121;49.810;6.418;2022-12-29T06:37:38;795.67;;;743.15;;
12114;SDS011;6121;49.810;6.418;2022-12-29T06:40:04;781.47;;;729.33;;
12114;SDS011;6121;49.810;6.418;2022-12-29T06:42:30;788.25;;;735.78;;
12114;SDS011;6121;49.810;6.418;2022-12-29T06:44:56;789.97;;;737.73;;
12114;SDS011;6121;49.810;6.418;2022-12-29T06:47:23;789.00;;;736.70;;
12114;SDS011;6121;49.810;6.418;2022-12-29T06:49:49;814.63;;;760.25;;
12114;SDS011;6121;49.810;6.418;2022-12-29T06:52:15;793.47;;;739.90;;
12114;SDS011;6121;49.810;6.418;2022-12-29T06:54:40;802.27;;;748.83;;
12114;SDS011;6121;49.810;6.418;2022-12-29T06:57:06;807.67;;;753.70;;
12114;SDS011;6121;49.810;6.418;2022-12-29T06:59:32;801.80;;;747.67;;
12114;SDS011;6121;49.810;6.418;2022-12-29T07:01:58;815.90;;;761.33;;
12114;SDS011;6121;49.810;6.418;2022-12-29T07:04:23;808.55;;;754.45;;
12114;SDS011;6121;49.810;6.418;2022-12-29T07:06:49;789.10;;;735.93;;
12114;SDS011;6121;49.810;6.418;2022-12-29T07:09:14;804.43;;;750.97;;
12114;SDS011;6121;49.810;6.418;2022-12-29T07:11:40;826.77;;;771.90;;
12114;SDS011;6121;49.810;6.418;2022-12-29T07:14:06;812.77;;;759.03;;
12114;SDS011;6121;49.810;6.418;2022-12-29T07:16:31;803.97;;;750.13;;
12114;SDS011;6121;49.810;6.418;2022-12-29T07:18:59;807.20;;;753.17;;
12114;SDS011;6121;49.810;6.418;2022-12-29T07:21:24;823.35;;;768.65;;
12114;SDS011;6121;49.810;6.418;2022-12-29T07:23:50;813.15;;;758.90;;
12114;SDS011;6121;49.810;6.418;2022-12-29T07:26:16;827.17;;;772.13;;
12114;SDS011;6121;49.810;6.418;2022-12-29T07:28:43;818.92;;;763.95;;
12114;SDS011;6121;49.810;6.418;2022-12-29T07:31:16;812.70;;;758.00;;
12114;SDS011;6121;49.810;6.418;2022-12-29T07:33:46;810.65;;;756.38;;
12114;SDS011;6121;49.810;6.418;2022-12-29T07:36:13;815.55;;;760.97;;
12114;SDS011;6121;49.810;6.418;2022-12-29T07:38:39;815.78;;;760.58;;
12114;SDS011;6121;49.810;6.418;2022-12-29T07:41:06;818.25;;;763.50;;
12114;SDS011;6121;49.810;6.418;2022-12-29T07:43:31;826.90;;;771.60;;
12114;SDS011;6121;49.810;6.418;2022-12-29T07:45:57;818.80;;;764.27;;
12114;SDS011;6121;49.810;6.418;2022-12-29T07:48:23;821.23;;;765.93;;
12114;SDS011;6121;49.810;6.418;2022-12-29T07:50:48;832.75;;;776.30;;
12114;SDS011;6121;49.810;6.418;2022-12-29T07:53:14;827.88;;;772.97;;
12114;SDS011;6121;49.810;6.418;2022-12-29T07:55:40;825.20;;;769.83;;
12114;SDS011;6121;49.810;6.418;2022-12-29T07:58:05;812.87;;;757.97;;
12114;SDS011;6121;49.810;6.418;2022-12-29T08:00:31;823.33;;;767.53;;
12114;SDS011;6121;49.810;6.418;2022-12-29T08:02:57;820.13;;;764.63;;
12114;SDS011;6121;49.810;6.418;2022-12-29T08:05:22;832.28;;;776.75;;
12114;SDS011;6121;49.810;6.418;2022-12-29T08:07:48;807.60;;;753.00;;
12114;SDS011;6121;49.810;6.418;2022-12-29T08:10:14;831.42;;;775.08;;
12114;SDS011;6121;49.810;6.418;2022-12-29T08:12:40;817.15;;;761.30;;
12114;SDS011;6121;49.810;6.418;2022-12-29T08:15:07;818.85;;;763.83;;
12114;SDS011;6121;49.810;6.418;2022-12-29T08:17:33;816.92;;;761.78;;
12114;SDS011;6121;49.810;6.418;2022-12-29T08:19:59;817.30;;;761.83;;
12114;SDS011;6121;49.810;6.418;2022-12-29T08:22:25;821.60;;;766.00;;
12114;SDS011;6121;49.810;6.418;2022-12-29T08:24:50;802.05;;;747.45;;
12114;SDS011;6121;49.810;6.418;2022-12-29T08:27:16;819.40;;;764.58;;
12114;SDS011;6121;49.810;6.418;2022-12-29T08:29:42;823.43;;;768.33;;
12114;SDS011;6121;49.810;6.418;2022-12-29T08:32:08;833.85;;;778.60;;
12114;SDS011;6121;49.810;6.418;2022-12-29T08:34:33;831.55;;;776.25;;
12114;SDS011;6121;49.810;6.418;2022-12-29T08:36:59;824.30;;;769.25;;
12114;SDS011;6121;49.810;6.418;2022-12-29T08:39:25;829.53;;;774.10;;
12114;SDS011;6121;49.810;6.418;2022-12-29T08:41:50;827.73;;;771.80;;
12114;SDS011;6121;49.810;6.418;2022-12-29T08:44:16;822.17;;;767.20;;
12114;SDS011;6121;49.810;6.418;2022-12-29T08:46:41;826.37;;;770.53;;
12114;SDS011;6121;49.810;6.418;2022-12-29T08:49:07;832.95;;;777.35;;
12114;SDS011;6121;49.810;6.418;2022-12-29T08:51:33;833.55;;;777.03;;
12114;SDS011;6121;49.810;6.418;2022-12-29T08:53:59;815.78;;;760.90;;
12114;SDS011;6121;49.810;6.418;2022-12-29T08:56:24;817.70;;;762.83;;
12114;SDS011;6121;49.810;6.418;2022-12-29T08:58:51;820.08;;;764.38;;
12114;SDS011;6121;49.810;6.418;2022-12-29T09:01:17;831.75;;;776.05;;
12114;SDS011;6121;49.810;6.418;2022-12-29T09:03:42;819.10;;;764.05;;
12114;SDS011;6121;49.810;6.418;2022-12-29T09:06:08;811.90;;;756.22;;
12114;SDS011;6121;49.810;6.418;2022-12-29T09:08:33;818.27;;;763.23;;
12114;SDS011;6121;49.810;6.418;2022-12-29T09:11:10;828.15;;;772.80;;
12114;SDS011;6121;49.810;6.418;2022-12-29T09:13:38;809.05;;;754.42;;
12114;SDS011;6121;49.810;6.418;2022-12-29T09:16:04;818.00;;;763.53;;
12114;SDS011;6121;49.810;6.418;2022-12-29T09:18:30;824.70;;;769.17;;
12114;SDS011;6121;49.810;6.418;2022-12-29T09:21:01;834.85;;;778.15;;
12114;SDS011;6121;49.810;6.418;2022-12-29T09:23:27;823.95;;;768.58;;
12114;SDS011;6121;49.810;6.418;2022-12-29T09:25:54;810.40;;;755.33;;
12114;SDS011;6121;49.810;6.418;2022-12-29T09:28:20;819.50;;;765.03;;
12114;SDS011;6121;49.810;6.418;2022-12-29T09:30:46;823.05;;;766.78;;
12114;SDS011;6121;49.810;6.418;2022-12-29T09:33:13;801.45;;;747.30;;
12114;SDS011;6121;49.810;6.418;2022-12-29T09:35:42;817.10;;;762.40;;
12114;SDS011;6121;49.810;6.418;2022-12-29T09:38:09;818.63;;;764.10;;
12114;SDS011;6121;49.810;6.418;2022-12-29T09:40:35;812.90;;;756.65;;
12114;SDS011;6121;49.810;6.418;2022-12-29T09:43:05;839.03;;;782.08;;
12114;SDS011;6121;49.810;6.418;2022-12-29T09:45:42;828.25;;;771.63;;
12114;SDS011;6121;49.810;6.418;2022-12-29T09:48:12;806.92;;;751.60;;
12114;SDS011;6121;49.810;6.418;2022-12-29T09:50:43;815.67;;;759.25;;
12114;SDS011;6121;49.810;6.418;2022-12-29T09:53:32;815.55;;;759.72;;
12114;SDS011;6121;49.810;6.418;2022-12-29T09:56:05;823.60;;;767.70;;
12114;SDS011;6121;49.810;6.418;2022-12-29T09:58:41;828.03;;;772.80;;
12114;SDS011;6121;49.810;6.418;2022-12-29T10:01:28;830.45;;;775.10;;
12114;SDS011;6121;49.810;6.418;2022-12-29T10:03:55;827.85;;;772.60;;
12114;SDS011;6121;49.810;6.418;2022-12-29T10:17:28;819.67;;;764.05;;
12114;SDS011;6121;49.810;6.418;2022-12-29T10:20:31;815.75;;;760.30;;
12114;SDS011;6121;49.810;6.418;2022-12-29T10:25:41;811.67;;;756.60;;
12114;SDS011;6121;49.810;6.418;2022-12-29T10:28:21;817.85;;;762.90;;
12114;SDS011;6121;49.810;6.418;2022-12-29T10:31:00;814.47;;;759.58;;
12114;SDS011;6121;49.810;6.418;2022-12-29T10:33:35;813.63;;;758.43;;
12114;SDS011;6121;49.810;6.418;2022-12-29T10:36:15;802.78;;;748.38;;
12114;SDS011;6121;49.810;6.418;2022-12-29T10:38:58;803.80;;;748.60;;
12114;SDS011;6121;49.810;6.418;2022-12-29T10:41:44;812.60;;;757.60;;
12114;SDS011;6121;49.810;6.418;2022-12-29T10:44:21;802.38;;;747.88;;
12114;SDS011;6121;49.810;6.418;2022-12-29T10:46:54;789.95;;;735.22;;
12114;SDS011;6121;49.810;6.418;2022-12-29T10:49:25;784.38;;;730.65;;
12114;SDS011;6121;49.810;6.418;2022-12-29T10:51:54;759.35;;;705.00;;
12114;SDS011;6121;49.810;6.418;2022-12-29T10:54:39;795.70;;;741.22;;
12114;SDS011;6121;49.810;6.418;2022-12-29T10:57:47;820.47;;;764.63;;
12114;SDS011;6121;49.810;6.418;2022-12-29T11:00:19;834.35;;;778.08;;
12114;SDS011;6121;49.810;6.418;2022-12-29T11:08:02;817.50;;;762.27;;
12114;SDS011;6121;49.810;6.418;2022-12-29T11:12:59;801.50;;;746.90;;
12114;SDS011;6121;49.810;6.418;2022-12-29T11:15:45;817.72;;;762.65;;
12114;SDS011;6121;49.810;6.418;2022-12-29T11:20:45;821.60;;;765.20;;
12114;SDS011;6121;49.810;6.418;2022-12-29T11:23:21;803.60;;;749.50;;
12114;SDS011;6121;49.810;6.418;2022-12-29T11:28:43;813.28;;;758.35;;
12114;SDS011;6121;49.810;6.418;2022-12-29T11:31:10;810.00;;;754.95;;
12114;SDS011;6121;49.810;6.418;2022-12-29T11:33:41;815.35;;;760.53;;
12114;SDS011;6121;49.810;6.418;2022-12-29T11:36:08;801.10;;;746.27;;
12114;SDS011;6121;49.810;6.418;2022-12-29T11:39:02;811.25;;;755.58;;
12114;SDS011;6121;49.810;6.418;2022-12-29T11:41:28;763.10;;;708.15;;
12114;SDS011;6121;49.810;6.418;2022-12-29T11:43:56;706.47;;;654.55;;
12114;SDS011;6121;49.810;6.418;2022-12-29T11:46:30;741.03;;;687.20;;
12114;SDS011;6121;49.810;6.418;2022-12-29T11:49:02;716.45;;;664.00;;
12114;SDS011;6121;49.810;6.418;2022-12-29T11:51:30;809.55;;;753.08;;
12114;SDS011;6121;49.810;6.418;2022-12-29T11:54:16;809.78;;;754.42;;
12114;SDS011;6121;49.810;6.418;2022-12-29T11:56:49;787.00;;;731.20;;
12114;SDS011;6121;49.810;6.418;2022-12-29T12:02:03;719.17;;;666.88;;
12114;SDS011;6121;49.810;6.418;2022-12-29T12:04:45;733.13;;;679.20;;
12114;SDS011;6121;49.810;6.418;2022-12-29T12:09:49;772.17;;;717.63;;
12114;SDS011;6121;49.810;6.418;2022-12-29T12:12:23;760.95;;;707.53;;
12114;SDS011;6121;49.810;6.418;2022-12-29T12:14:56;759.33;;;706.80;;
12114;SDS011;6121;49.810;6.418;2022-12-29T12:17:30;661.25;;;612.00;;
12114;SDS011;6121;49.810;6.418;2022-12-29T12:22:54;701.38;;;649.70;;
12114;SDS011;6121;49.810;6.418;2022-12-29T12:25:43;686.40;;;635.97;;
12114;SDS011;6121;49.810;6.418;2022-12-29T12:28:26;679.55;;;628.58;;
12114;SDS011;6121;49.810;6.418;2022-12-29T12:31:01;686.65;;;635.33;;
12114;SDS011;6121;49.810;6.418;2022-12-29T12:33:33;648.35;;;598.80;;
12114;SDS011;6121;49.810;6.418;2022-12-29T12:42:19;682.53;;;631.50;;
12114;SDS011;6121;49.810;6.418;2022-12-29T12:45:13;731.15;;;677.95;;
12114;SDS011;6121;49.810;6.418;2022-12-29T12:48:12;677.25;;;625.58;;
12114;SDS011;6121;49.810;6.418;2022-12-29T12:59:36;673.55;;;623.28;;
12114;SDS011;6121;49.810;6.418;2022-12-29T13:13:15;700.60;;;648.73;;
12114;SDS011;6121;49.810;6.418;2022-12-29T13:18:33;712.17;;;660.53;;
12114;SDS011;6121;49.810;6.418;2022-12-29T13:24:06;733.17;;;681.13;;
12114;SDS011;6121;49.810;6.418;2022-12-29T13:26:44;721.15;;;667.70;;
12114;SDS011;6121;49.810;6.418;2022-12-29T13:37:10;685.05;;;633.10;;
12114;SDS011;6121;49.810;6.418;2022-12-29T13:39:46;711.35;;;658.70;;
12114;SDS011;6121;49.810;6.418;2022-12-29T13:42:16;673.58;;;622.00;;
12114;SDS011;6121;49.810;6.418;2022-12-29T13:44:45;708.35;;;656.10;;
12114;SDS011;6121;49.810;6.418;2022-12-29T13:47:27;663.65;;;612.85;;
12114;SDS011;6121;49.810;6.418;2022-12-29T13:50:03;670.92;;;619.58;;
12114;SDS011;6121;49.810;6.418;2022-12-29T13:52:39;686.83;;;635.10;;
12114;SDS011;6121;49.810;6.418;2022-12-29T13:58:03;727.88;;;674.60;;
12114;SDS011;6121;49.810;6.418;2022-12-29T14:00:50;758.50;;;702.20;;
12114;SDS011;6121;49.810;6.418;2022-12-29T14:08:54;737.97;;;684.27;;
12114;SDS011;6121;49.810;6.418;2022-12-29T14:11:23;744.85;;;690.90;;
12114;SDS011;6121;49.810;6.418;2022-12-29T14:13:55;712.42;;;660.28;;
12114;SDS011;6121;49.810;6.418;2022-12-29T14:18:53;736.85;;;684.92;;
12114;SDS011;6121;49.810;6.418;2022-12-29T14:21:22;730.25;;;678.33;;
12114;SDS011;6121;49.810;6.418;2022-12-29T14:23:56;721.55;;;668.25;;
12114;SDS011;6121;49.810;6.418;2022-12-29T14:26:52;727.88;;;675.20;;
12114;SDS011;6121;49.810;6.418;2022-12-29T14:29:41;711.40;;;660.40;;
12114;SDS011;6121;49.810;6.418;2022-12-29T14:40:05;752.70;;;698.03;;
12114;SDS011;6121;49.810;6.418;2022-12-29T14:42:34;741.20;;;688.10;;
12114;SDS011;6121;49.810;6.418;2022-12-29T14:45:05;751.20;;;697.20;;
12114;SDS011;6121;49.810;6.418;2022-12-29T14:47:49;736.42;;;682.58;;
12114;SDS011;6121;49.810;6.418;2022-12-29T14:56:19;760.00;;;705.67;;
12114;SDS011;6121;49.810;6.418;2022-12-29T14:59:08;795.95;;;740.47;;
12114;SDS011;6121;49.810;6.418;2022-12-29T15:01:43;781.58;;;725.92;;
12114;SDS011;6121;49.810;6.418;2022-12-29T15:04:18;810.80;;;754.60;;
12114;SDS011;6121;49.810;6.418;2022-12-29T15:06:55;847.10;;;790.35;;
12114;SDS011;6121;49.810;6.418;2022-12-29T15:11:59;819.20;;;763.25;;
12114;SDS011;6121;49.810;6.418;2022-12-29T15:14:33;807.25;;;751.53;;
12114;SDS011;6121;49.810;6.418;2022-12-29T15:16:59;827.67;;;770.78;;
12114;SDS011;6121;49.810;6.418;2022-12-29T15:19:25;857.40;;;799.70;;
12114;SDS011;6121;49.810;6.418;2022-12-29T15:21:52;838.15;;;781.22;;
12114;SDS011;6121;49.810;6.418;2022-12-29T15:24:19;853.95;;;796.45;;
12114;SDS011;6121;49.810;6.418;2022-12-29T15:26:46;837.40;;;780.47;;
12114;SDS011;6121;49.810;6.418;2022-12-29T15:29:30;832.88;;;776.85;;
12114;SDS011;6121;49.810;6.418;2022-12-29T15:34:41;826.83;;;770.13;;
12114;SDS011;6121;49.810;6.418;2022-12-29T15:37:08;832.53;;;776.30;;
12114;SDS011;6121;49.810;6.418;2022-12-29T15:39:34;831.28;;;774.42;;
12114;SDS011;6121;49.810;6.418;2022-12-29T15:42:05;862.23;;;803.80;;
12114;SDS011;6121;49.810;6.418;2022-12-29T15:44:51;840.58;;;783.33;;
12114;SDS011;6121;49.810;6.418;2022-12-29T15:47:18;850.35;;;793.42;;
12114;SDS011;6121;49.810;6.418;2022-12-29T15:49:49;846.15;;;787.97;;
12114;SDS011;6121;49.810;6.418;2022-12-29T15:52:18;859.33;;;801.20;;
12114;SDS011;6121;49.810;6.418;2022-12-29T15:54:45;822.20;;;766.28;;
12114;SDS011;6121;49.810;6.418;2022-12-29T15:57:24;839.35;;;783.25;;
12114;SDS011;6121;49.810;6.418;2022-12-29T15:59:55;852.05;;;795.08;;
12114;SDS011;6121;49.810;6.418;2022-12-29T16:02:21;847.50;;;789.87;;
12114;SDS011;6121;49.810;6.418;2022-12-29T16:04:48;853.87;;;796.93;;
12114;SDS011;6121;49.810;6.418;2022-12-29T16:07:28;849.95;;;793.78;;
12114;SDS011;6121;49.810;6.418;2022-12-29T16:09:59;856.40;;;799.28;;
12114;SDS011;6121;49.810;6.418;2022-12-29T16:12:30;857.72;;;800.03;;
12114;SDS011;6121;49.810;6.418;2022-12-29T16:15:02;839.90;;;783.53;;
12114;SDS011;6121;49.810;6.418;2022-12-29T16:17:31;839.67;;;783.23;;
12114;SDS011;6121;49.810;6.418;2022-12-29T16:19:59;861.67;;;803.80;;
12114;SDS011;6121;49.810;6.418;2022-12-29T16:22:35;785.10;;;729.78;;
12114;SDS011;6121;49.810;6.418;2022-12-29T16:25:06;782.85;;;727.70;;
12114;SDS011;6121;49.810;6.418;2022-12-29T16:27:39;767.58;;;712.83;;
12114;SDS011;6121;49.810;6.418;2022-12-29T16:30:12;783.45;;;727.05;;
12114;SDS011;6121;49.810;6.418;2022-12-29T16:32:50;786.67;;;731.05;;
12114;SDS011;6121;49.810;6.418;2022-12-29T16:38:07;786.03;;;731.20;;
12114;SDS011;6121;49.810;6.418;2022-12-29T16:43:33;828.17;;;772.15;;
12114;SDS011;6121;49.810;6.418;2022-12-29T16:46:18;756.50;;;703.17;;